createdAt,value
2022-12-17T00:00:21.949Z,273.97
2022-12-17T00:01:14.676Z,274.65
2022-12-17T00:02:08.962Z,274.88
2022-12-17T00:03:04.326Z,275.35
2022-12-17T00:03:59.601Z,270.58
2022-12-17T00:04:56.130Z,264.05
2022-12-17T00:05:51.356Z,264.26
2022-12-17T00:06:46.638Z,262.57
2022-12-17T00:07:41.868Z,262.78
2022-12-17T00:08:37.258Z,260.90
2022-12-17T00:09:32.344Z,262.36
2022-12-17T00:10:27.596Z,261.94
2022-12-17T00:11:22.862Z,260.48
2022-12-17T00:12:18.214Z,257.82
2022-12-17T00:13:13.432Z,257.62
2022-12-17T00:14:08.737Z,256.81
2022-12-17T00:15:03.996Z,256.21
2022-12-17T00:15:59.283Z,254.82
2022-12-17T00:16:54.522Z,254.62
2022-12-17T00:17:49.798Z,256.21
2022-12-17T00:18:45.142Z,254.62
2022-12-17T00:19:40.283Z,252.27
2022-12-17T00:20:35.480Z,250.35
2022-12-17T00:21:30.767Z,248.07
2022-12-17T00:22:26.009Z,246.58
2022-12-17T00:23:21.238Z,246.58
2022-12-17T00:24:16.474Z,246.77
2022-12-17T00:25:11.726Z,243.65
2022-12-17T00:26:06.981Z,244.74
2022-12-17T00:27:02.266Z,242.75
2022-12-17T00:27:57.614Z,243.65
2022-12-17T00:28:53.098Z,241.68
2022-12-17T00:29:48.263Z,243.47
2022-12-17T00:30:43.502Z,242.93
2022-12-17T00:31:38.891Z,241.15
2022-12-17T00:32:34.048Z,240.62
2022-12-17T00:33:29.291Z,240.97
2022-12-17T00:34:24.553Z,239.74
2022-12-17T00:35:19.738Z,240.26
2022-12-17T00:36:15.831Z,239.39
2022-12-17T00:37:11.121Z,240.09
2022-12-17T00:38:06.344Z,240.79
2022-12-17T00:39:01.566Z,240.79
2022-12-17T00:39:59.417Z,242.93
2022-12-17T00:40:52.117Z,244.93
2022-12-17T00:41:47.360Z,246.03
2022-12-17T00:42:42.644Z,248.07
2022-12-17T00:43:38.605Z,251.88
2022-12-17T00:44:33.066Z,249.77
2022-12-17T00:45:28.137Z,251.88
2022-12-17T00:46:23.262Z,254.42
2022-12-17T00:47:18.369Z,255.41
2022-12-17T00:48:13.505Z,256.21
2022-12-17T00:49:08.484Z,257.62
2022-12-17T00:50:03.548Z,259.45
2022-12-17T00:50:58.663Z,260.07
2022-12-17T00:51:53.738Z,261.94
2022-12-17T00:52:48.819Z,261.52
2022-12-17T00:53:44.199Z,262.99
2022-12-17T00:54:39.147Z,265.33
2022-12-17T00:55:34.199Z,266.40
2022-12-17T00:56:29.327Z,267.49
2022-12-17T00:57:24.293Z,270.35
2022-12-17T00:58:19.394Z,272.83
2022-12-17T00:59:14.653Z,272.15
2022-12-17T01:00:09.638Z,273.05
2022-12-17T01:01:04.672Z,272.83
2022-12-17T01:01:59.685Z,273.28
2022-12-17T01:02:54.810Z,276.51
2022-12-17T01:03:49.803Z,278.15
2022-12-17T01:04:44.935Z,277.91
2022-12-17T01:05:39.889Z,282.21
2022-12-17T01:06:34.952Z,282.70
2022-12-17T01:07:30.188Z,283.92
2022-12-17T01:08:25.279Z,285.65
2022-12-17T01:09:20.429Z,280.77
2022-12-17T01:10:18.963Z,279.57
2022-12-17T01:11:14.071Z,281.25
2022-12-17T01:12:09.258Z,283.19
2022-12-17T01:13:04.504Z,287.66
2022-12-17T01:13:59.864Z,287.66
2022-12-17T01:14:55.081Z,288.16
2022-12-17T01:15:50.626Z,288.92
2022-12-17T01:16:45.630Z,286.65
2022-12-17T01:17:40.994Z,284.91
2022-12-17T01:18:36.086Z,284.42
2022-12-17T01:19:31.272Z,284.17
2022-12-17T01:20:26.523Z,282.70
2022-12-17T01:21:21.843Z,283.19
2022-12-17T01:22:17.059Z,283.43
2022-12-17T01:23:12.313Z,282.94
2022-12-17T01:24:07.682Z,286.15
2022-12-17T01:25:02.873Z,286.40
2022-12-17T01:25:58.131Z,288.42
2022-12-17T01:26:53.541Z,291.75
2022-12-17T01:27:48.576Z,292.79
2022-12-17T01:28:43.781Z,292.79
2022-12-17T01:29:39.001Z,292.27
2022-12-17T01:30:34.248Z,292.53
2022-12-17T01:31:34.713Z,291.75
2022-12-17T01:32:26.172Z,294.63
2022-12-17T01:33:20.028Z,295.96
2022-12-17T01:34:15.232Z,297.57
2022-12-17T01:35:10.458Z,300.57
2022-12-17T01:36:05.665Z,298.38
2022-12-17T01:37:01.153Z,300.84
2022-12-17T01:37:56.441Z,304.47
2022-12-17T01:38:51.508Z,302.23
2022-12-17T01:39:46.747Z,306.46
2022-12-17T01:40:42.110Z,307.04
2022-12-17T01:41:41.524Z,304.19
2022-12-17T01:42:36.983Z,306.18
2022-12-17T01:43:32.584Z,300.84
2022-12-17T01:44:27.141Z,303.63
2022-12-17T01:45:22.197Z,304.19
2022-12-17T01:46:17.335Z,304.19
2022-12-17T01:47:12.337Z,305.04
2022-12-17T01:48:07.401Z,307.61
2022-12-17T01:49:02.519Z,305.61
2022-12-17T01:49:57.497Z,305.61
2022-12-17T01:50:52.566Z,304.47
2022-12-17T01:51:47.640Z,303.63
2022-12-17T01:52:42.738Z,301.67
2022-12-17T01:53:38.283Z,298.65
2022-12-17T01:54:33.225Z,297.30
2022-12-17T01:55:28.327Z,296.23
2022-12-17T01:56:23.395Z,294.63
2022-12-17T01:57:18.511Z,294.37
2022-12-17T01:58:13.565Z,291.49
2022-12-17T01:59:08.641Z,287.66
2022-12-17T02:00:04.008Z,287.15
2022-12-17T02:00:58.864Z,284.17
2022-12-17T02:01:54.019Z,281.97
2022-12-17T02:02:48.983Z,279.57
2022-12-17T02:03:43.951Z,277.68
2022-12-17T02:04:39.059Z,275.81
2022-12-17T02:05:34.331Z,273.74
2022-12-17T02:06:31.861Z,276.51
2022-12-17T02:07:26.976Z,274.65
2022-12-17T02:08:22.046Z,276.04
2022-12-17T02:09:17.138Z,277.44
2022-12-17T02:10:12.239Z,277.44
2022-12-17T02:11:07.678Z,272.83
2022-12-17T02:12:02.384Z,267.93
2022-12-17T02:12:57.449Z,269.69
2022-12-17T02:13:52.564Z,272.83
2022-12-17T02:14:47.654Z,275.11
2022-12-17T02:15:42.726Z,279.09
2022-12-17T02:16:37.928Z,275.35
2022-12-17T02:17:32.859Z,279.81
2022-12-17T02:18:27.900Z,278.62
2022-12-17T02:19:23.134Z,284.66
2022-12-17T02:20:18.122Z,287.91
2022-12-17T02:21:13.211Z,293.05
2022-12-17T02:22:08.441Z,298.11
2022-12-17T02:23:03.409Z,303.35
2022-12-17T02:23:58.464Z,305.61
2022-12-17T02:24:53.523Z,307.61
2022-12-17T02:25:48.606Z,308.19
2022-12-17T02:26:43.700Z,310.52
2022-12-17T02:27:38.828Z,311.70
2022-12-17T02:28:33.788Z,313.79
2022-12-17T02:29:28.873Z,316.21
2022-12-17T02:30:24.106Z,318.67
2022-12-17T02:31:19.208Z,320.85
2022-12-17T02:32:14.269Z,321.48
2022-12-17T02:33:09.442Z,322.42
2022-12-17T02:34:04.376Z,323.06
2022-12-17T02:34:59.448Z,323.06
2022-12-17T02:35:54.529Z,322.11
2022-12-17T02:36:49.558Z,324.98
2022-12-17T02:37:44.672Z,323.70
2022-12-17T02:38:39.828Z,324.98
2022-12-17T02:39:37.202Z,322.74
2022-12-17T02:40:32.268Z,322.11
2022-12-17T02:41:27.341Z,321.79
2022-12-17T02:42:22.419Z,322.74
2022-12-17T02:43:17.509Z,319.60
2022-12-17T02:44:12.688Z,319.29
2022-12-17T02:45:07.683Z,320.22
2022-12-17T02:46:02.809Z,318.98
2022-12-17T02:46:57.818Z,318.98
2022-12-17T02:47:52.907Z,315.00
2022-12-17T02:48:48.015Z,315.60
2022-12-17T02:49:43.062Z,313.19
2022-12-17T02:50:38.023Z,308.19
2022-12-17T02:51:33.090Z,310.23
2022-12-17T02:52:33.324Z,310.52
2022-12-17T02:53:24.294Z,307.33
2022-12-17T02:54:18.320Z,311.11
2022-12-17T02:55:13.409Z,311.11
2022-12-17T02:56:09.075Z,309.94
2022-12-17T02:57:04.261Z,314.39
2022-12-17T02:57:59.477Z,317.13
2022-12-17T02:58:54.712Z,316.21
2022-12-17T02:59:50.089Z,317.74
2022-12-17T03:00:45.550Z,317.13
2022-12-17T03:01:40.717Z,315.60
2022-12-17T03:02:36.015Z,317.74
2022-12-17T03:03:31.350Z,320.54
2022-12-17T03:04:26.444Z,323.38
2022-12-17T03:05:44.013Z,323.70
2022-12-17T03:06:18.223Z,329.22
2022-12-17T03:07:12.340Z,329.55
2022-12-17T03:08:07.529Z,328.89
2022-12-17T03:09:02.768Z,329.55
2022-12-17T03:09:58.108Z,327.90
2022-12-17T03:10:53.598Z,330.88
2022-12-17T03:11:48.903Z,328.56
2022-12-17T03:12:44.001Z,329.55
2022-12-17T03:13:39.201Z,333.57
2022-12-17T03:14:34.456Z,342.27
2022-12-17T03:15:29.677Z,337.00
2022-12-17T03:16:24.977Z,340.14
2022-12-17T03:17:20.289Z,341.56
2022-12-17T03:18:15.643Z,336.65
2022-12-17T03:19:10.728Z,338.04
2022-12-17T03:20:05.974Z,331.55
2022-12-17T03:21:01.058Z,336.30
2022-12-17T03:21:56.139Z,338.39
2022-12-17T03:22:51.592Z,337.34
2022-12-17T03:23:46.368Z,338.73
2022-12-17T03:24:41.586Z,337.69
2022-12-17T03:25:36.680Z,338.04
2022-12-17T03:26:31.915Z,337.69
2022-12-17T03:27:26.890Z,342.27
2022-12-17T03:28:22.168Z,344.42
2022-12-17T03:29:16.971Z,345.15
2022-12-17T03:30:12.087Z,346.24
2022-12-17T03:31:07.178Z,347.34
2022-12-17T03:32:02.289Z,345.51
2022-12-17T03:32:57.242Z,342.98
2022-12-17T03:33:52.559Z,340.14
2022-12-17T03:34:47.381Z,339.79
2022-12-17T03:35:42.599Z,335.96
2022-12-17T03:36:37.551Z,324.66
2022-12-17T03:37:32.657Z,299.74
2022-12-17T03:38:27.730Z,291.49
2022-12-17T03:39:22.930Z,295.16
2022-12-17T03:40:17.886Z,296.49
2022-12-17T03:41:12.964Z,300.57
2022-12-17T03:42:08.053Z,306.18
2022-12-17T03:43:03.154Z,312.00
2022-12-17T03:43:58.214Z,317.13
2022-12-17T03:44:53.385Z,320.85
2022-12-17T03:45:48.376Z,321.16
2022-12-17T03:46:43.475Z,324.02
2022-12-17T03:47:38.664Z,325.95
2022-12-17T03:48:34.009Z,325.62
2022-12-17T03:49:29.250Z,324.66
2022-12-17T03:50:24.625Z,327.25
2022-12-17T03:51:19.864Z,324.98
2022-12-17T03:52:14.973Z,318.98
2022-12-17T03:53:10.179Z,318.98
2022-12-17T03:54:05.289Z,322.42
2022-12-17T03:55:00.363Z,323.06
2022-12-17T03:55:55.555Z,322.11
2022-12-17T03:56:50.492Z,318.05
2022-12-17T03:57:45.576Z,312.30
2022-12-17T03:58:40.661Z,312.89
2022-12-17T03:59:35.763Z,309.35
2022-12-17T04:00:31.097Z,316.52
2022-12-17T04:01:26.573Z,319.91
2022-12-17T04:02:21.651Z,318.98
2022-12-17T04:03:16.594Z,322.11
2022-12-17T04:04:11.556Z,329.55
2022-12-17T04:05:06.636Z,327.90
2022-12-17T04:06:01.729Z,327.90
2022-12-17T04:06:57.062Z,330.55
2022-12-17T04:07:51.851Z,327.25
2022-12-17T04:08:51.020Z,333.57
2022-12-17T04:09:46.085Z,333.23
2022-12-17T04:10:41.157Z,330.55
2022-12-17T04:11:36.250Z,330.55
2022-12-17T04:12:31.561Z,320.85
2022-12-17T04:13:26.332Z,329.88
2022-12-17T04:14:21.459Z,328.89
2022-12-17T04:15:16.535Z,329.22
2022-12-17T04:16:11.681Z,327.90
2022-12-17T04:17:06.635Z,324.02
2022-12-17T04:18:01.965Z,325.30
2022-12-17T04:18:56.794Z,327.58
2022-12-17T04:19:51.876Z,323.70
2022-12-17T04:20:46.955Z,314.69
2022-12-17T04:21:42.042Z,318.98
2022-12-17T04:22:37.012Z,318.36
2022-12-17T04:23:32.255Z,318.67
2022-12-17T04:24:27.123Z,316.52
2022-12-17T04:25:25.725Z,317.13
2022-12-17T04:26:20.817Z,317.13
2022-12-17T04:27:16.061Z,309.35
2022-12-17T04:28:11.156Z,317.74
2022-12-17T04:29:06.307Z,311.70
2022-12-17T04:30:01.280Z,309.06
2022-12-17T04:30:56.458Z,280.77
2022-12-17T04:31:51.420Z,232.43
2022-12-17T04:32:46.528Z,221.75
2022-12-17T04:33:41.567Z,229.83
2022-12-17T04:34:37.156Z,241.68
2022-12-17T04:35:32.266Z,254.82
2022-12-17T04:36:27.483Z,266.62
2022-12-17T04:37:22.697Z,276.97
2022-12-17T04:38:18.035Z,283.92
2022-12-17T04:39:13.233Z,283.43
2022-12-17T04:40:09.364Z,279.33
2022-12-17T04:41:03.736Z,278.15
2022-12-17T04:41:58.963Z,278.15
2022-12-17T04:42:54.183Z,278.38
2022-12-17T04:43:49.418Z,280.29
2022-12-17T04:44:44.756Z,287.91
2022-12-17T04:45:40.215Z,292.79
2022-12-17T04:46:35.209Z,300.02
2022-12-17T04:47:30.466Z,304.19
2022-12-17T04:48:25.647Z,305.89
2022-12-17T04:49:20.860Z,308.77
2022-12-17T04:50:16.086Z,309.64
2022-12-17T04:51:11.416Z,311.41
2022-12-17T04:52:06.766Z,313.79
2022-12-17T04:53:01.864Z,318.36
2022-12-17T04:53:57.068Z,319.60
2022-12-17T04:54:52.298Z,321.48
2022-12-17T04:55:47.666Z,315.30
2022-12-17T04:56:42.946Z,322.11
2022-12-17T04:57:38.183Z,316.52
2022-12-17T04:58:33.534Z,322.11
2022-12-17T05:00:56.939Z,275.11
2022-12-17T05:01:52.237Z,292.79
2022-12-17T05:02:47.409Z,299.74
2022-12-17T05:03:42.506Z,302.79
2022-12-17T05:04:37.702Z,307.61
2022-12-17T05:05:32.911Z,306.46
2022-12-17T05:06:28.141Z,306.75
2022-12-17T05:07:23.400Z,309.35
2022-12-17T05:08:18.585Z,308.77
2022-12-17T05:09:13.833Z,311.41
2022-12-17T05:10:09.033Z,311.70
2022-12-17T05:11:04.403Z,313.49
2022-12-17T05:11:59.519Z,314.39
2022-12-17T05:12:54.819Z,315.00
2022-12-17T05:13:49.925Z,316.52
2022-12-17T05:14:45.251Z,312.89
2022-12-17T05:15:40.565Z,311.41
2022-12-17T05:16:35.854Z,312.30
2022-12-17T05:17:31.064Z,309.94
2022-12-17T05:18:26.409Z,305.04
2022-12-17T05:19:21.509Z,303.07
2022-12-17T05:20:16.680Z,297.57
2022-12-17T05:21:12.030Z,298.93
2022-12-17T05:22:07.121Z,297.03
2022-12-17T05:23:02.338Z,294.63
2022-12-17T05:23:57.739Z,287.66
2022-12-17T05:24:52.816Z,279.81
2022-12-17T05:25:48.010Z,275.11
2022-12-17T05:26:43.260Z,271.92
2022-12-17T05:27:38.466Z,270.58
2022-12-17T05:28:33.686Z,268.80
2022-12-17T05:29:29.115Z,265.76
2022-12-17T05:30:24.189Z,265.97
2022-12-17T05:31:19.604Z,265.97
2022-12-17T05:32:14.720Z,264.90
2022-12-17T05:33:09.915Z,264.90
2022-12-17T05:34:05.164Z,263.20
2022-12-17T05:35:00.441Z,262.36
2022-12-17T05:35:55.655Z,264.05
2022-12-17T05:36:50.871Z,264.68
2022-12-17T05:37:46.091Z,263.41
2022-12-17T05:38:41.309Z,264.05
2022-12-17T05:39:36.537Z,262.36
2022-12-17T05:40:31.927Z,258.43
2022-12-17T05:41:27.145Z,258.84
2022-12-17T05:42:22.228Z,257.42
2022-12-17T05:43:17.579Z,253.83
2022-12-17T05:44:12.802Z,254.23
2022-12-17T05:45:08.036Z,253.64
2022-12-17T05:46:03.384Z,253.24
2022-12-17T05:46:58.535Z,250.92
2022-12-17T05:47:53.767Z,255.41
2022-12-17T05:48:48.985Z,255.01
2022-12-17T05:49:44.203Z,256.61
2022-12-17T05:50:39.425Z,255.01
2022-12-17T05:51:38.676Z,261.31
2022-12-17T05:52:29.998Z,260.69
2022-12-17T05:53:25.206Z,261.52
2022-12-17T05:54:20.441Z,265.97
2022-12-17T05:55:15.628Z,266.84
2022-12-17T05:56:10.865Z,266.19
2022-12-17T05:57:06.169Z,268.80
2022-12-17T05:58:01.370Z,268.58
2022-12-17T05:58:56.557Z,267.05
2022-12-17T05:59:51.787Z,267.05
2022-12-17T06:00:46.997Z,264.26
2022-12-17T06:01:42.409Z,262.57
2022-12-17T06:02:37.866Z,261.94
2022-12-17T06:03:33.037Z,256.81
2022-12-17T06:04:28.055Z,252.27
2022-12-17T06:05:23.274Z,253.64
2022-12-17T06:06:18.492Z,253.83
2022-12-17T06:07:13.716Z,254.62
2022-12-17T06:08:09.113Z,256.21
2022-12-17T06:09:04.201Z,258.43
2022-12-17T06:09:59.426Z,258.84
2022-12-17T06:10:54.640Z,260.07
2022-12-17T06:11:49.967Z,261.31
2022-12-17T06:12:45.225Z,261.52
2022-12-17T06:13:40.591Z,262.36
2022-12-17T06:14:35.702Z,261.73
2022-12-17T06:15:30.896Z,261.52
2022-12-17T06:16:26.297Z,262.36
2022-12-17T06:17:21.530Z,263.62
2022-12-17T06:18:17.420Z,260.69
2022-12-17T06:19:12.081Z,261.10
2022-12-17T06:20:07.268Z,260.48
2022-12-17T06:21:02.465Z,262.15
2022-12-17T06:21:57.818Z,260.69
2022-12-17T06:22:52.913Z,262.36
2022-12-17T06:23:48.266Z,267.93
2022-12-17T06:24:46.143Z,268.58
2022-12-17T06:25:38.732Z,268.36
2022-12-17T06:26:34.125Z,266.84
2022-12-17T06:27:29.272Z,268.80
2022-12-17T06:28:25.186Z,271.02
2022-12-17T06:29:20.440Z,274.20
2022-12-17T06:30:18.978Z,276.74
2022-12-17T06:31:11.061Z,277.44
2022-12-17T06:32:07.463Z,278.62
2022-12-17T06:33:02.684Z,282.46
2022-12-17T06:33:57.878Z,284.17
2022-12-17T06:34:53.422Z,284.66
2022-12-17T06:35:48.660Z,284.66
2022-12-17T06:36:43.896Z,287.66
2022-12-17T06:37:39.142Z,285.65
2022-12-17T06:38:34.506Z,286.90
2022-12-17T06:39:29.824Z,286.15
2022-12-17T06:40:24.948Z,285.90
2022-12-17T06:41:20.191Z,289.69
2022-12-17T06:42:15.455Z,288.16
2022-12-17T06:43:10.649Z,287.91
2022-12-17T06:44:06.038Z,289.69
2022-12-17T06:45:01.153Z,290.71
2022-12-17T06:45:56.525Z,289.18
2022-12-17T06:46:52.171Z,288.42
2022-12-17T06:47:47.076Z,287.66
2022-12-17T06:48:42.566Z,287.40
2022-12-17T06:49:37.817Z,288.67
2022-12-17T06:50:33.034Z,288.92
2022-12-17T06:51:28.445Z,286.90
2022-12-17T06:52:23.767Z,277.21
2022-12-17T06:53:18.999Z,274.20
2022-12-17T06:54:14.217Z,273.05
2022-12-17T06:55:09.499Z,258.43
2022-12-17T06:56:04.714Z,203.21
2022-12-17T06:57:00.124Z,211.74
2022-12-17T06:57:55.476Z,223.87
2022-12-17T06:58:50.586Z,233.26
2022-12-17T06:59:45.872Z,241.15
2022-12-17T07:00:42.557Z,246.58
2022-12-17T07:01:37.891Z,253.44
2022-12-17T07:02:33.306Z,258.02
2022-12-17T07:03:28.897Z,261.94
2022-12-17T07:04:23.818Z,265.76
2022-12-17T07:05:18.819Z,266.40
2022-12-17T07:06:13.990Z,271.25
2022-12-17T07:07:08.990Z,268.80
2022-12-17T07:08:04.034Z,270.80
2022-12-17T07:08:59.339Z,269.69
2022-12-17T07:09:54.238Z,277.44
2022-12-17T07:10:49.240Z,277.68
2022-12-17T07:11:44.309Z,281.01
2022-12-17T07:12:39.297Z,280.05
2022-12-17T07:13:34.623Z,277.21
2022-12-17T07:14:31.255Z,283.19
2022-12-17T07:15:26.263Z,282.46
2022-12-17T07:16:21.471Z,285.65
2022-12-17T07:17:16.634Z,278.62
2022-12-17T07:18:11.635Z,286.40
2022-12-17T07:19:06.789Z,286.15
2022-12-17T07:20:01.857Z,287.15
2022-12-17T07:20:56.863Z,286.90
2022-12-17T07:21:51.883Z,284.91
2022-12-17T07:22:46.896Z,285.40
2022-12-17T07:23:41.896Z,288.16
2022-12-17T07:24:36.927Z,288.67
2022-12-17T07:25:32.026Z,288.67
2022-12-17T07:26:27.046Z,290.46
2022-12-17T07:27:22.092Z,283.43
2022-12-17T07:28:17.164Z,280.77
2022-12-17T07:29:12.188Z,280.05
2022-12-17T07:30:07.277Z,284.17
2022-12-17T07:31:07.117Z,288.16
2022-12-17T07:32:01.889Z,288.92
2022-12-17T07:32:56.819Z,288.16
2022-12-17T07:33:51.933Z,295.96
2022-12-17T07:34:46.991Z,292.79
2022-12-17T07:35:42.060Z,293.31
2022-12-17T07:36:37.454Z,293.58
2022-12-17T07:37:32.372Z,293.58
2022-12-17T07:38:27.583Z,292.27
2022-12-17T07:39:22.661Z,294.63
2022-12-17T07:40:17.783Z,294.63
2022-12-17T07:41:12.884Z,292.27
2022-12-17T07:42:08.018Z,293.58
2022-12-17T07:43:02.998Z,292.53
2022-12-17T07:43:58.040Z,290.71
2022-12-17T07:44:53.108Z,296.49
2022-12-17T07:45:48.530Z,302.79
2022-12-17T07:46:43.873Z,292.79
2022-12-17T07:47:39.365Z,297.03
2022-12-17T07:48:34.596Z,301.40
2022-12-17T07:49:29.904Z,299.74
2022-12-17T07:50:25.276Z,307.61
2022-12-17T07:51:20.647Z,304.19
2022-12-17T07:52:15.996Z,294.90
2022-12-17T07:53:11.533Z,302.23
2022-12-17T07:54:06.785Z,300.84
2022-12-17T07:55:02.163Z,302.51
2022-12-17T07:55:57.580Z,287.40
2022-12-17T07:56:52.965Z,287.66
2022-12-17T07:57:48.492Z,287.66
2022-12-17T07:58:43.881Z,288.42
2022-12-17T07:59:39.330Z,289.18
2022-12-17T08:00:34.982Z,249.21
2022-12-17T08:01:30.185Z,210.24
2022-12-17T08:02:25.294Z,184.80
2022-12-17T08:03:20.184Z,183.78
2022-12-17T08:04:15.281Z,192.03
2022-12-17T08:05:10.276Z,194.65
2022-12-17T08:06:05.275Z,205.89
2022-12-17T08:07:05.484Z,216.91
2022-12-17T08:07:56.521Z,226.34
2022-12-17T08:08:50.593Z,220.12
2022-12-17T08:09:45.641Z,220.41
2022-12-17T08:10:43.091Z,222.81
2022-12-17T08:11:38.072Z,228.39
2022-12-17T08:12:33.234Z,234.09
2022-12-17T08:13:28.271Z,235.27
2022-12-17T08:14:23.394Z,237.82
2022-12-17T08:15:18.841Z,243.29
2022-12-17T08:16:14.189Z,245.48
2022-12-17T08:17:09.578Z,242.93
2022-12-17T08:18:05.233Z,247.51
2022-12-17T08:19:00.665Z,250.35
2022-12-17T08:19:56.051Z,246.21
2022-12-17T08:20:51.492Z,246.03
2022-12-17T08:21:46.901Z,244.38
2022-12-17T08:22:42.416Z,242.75
2022-12-17T08:23:38.212Z,245.29
2022-12-17T08:24:33.145Z,248.45
2022-12-17T08:25:28.562Z,247.33
2022-12-17T08:26:24.157Z,250.73
2022-12-17T08:27:19.018Z,249.21
2022-12-17T08:28:41.152Z,250.73
2022-12-17T08:29:10.140Z,249.39
2022-12-17T08:30:04.137Z,249.39
2022-12-17T08:30:59.340Z,247.33
2022-12-17T08:31:54.360Z,243.47
2022-12-17T08:32:49.385Z,232.93
2022-12-17T08:33:47.116Z,224.02
2022-12-17T08:34:42.261Z,219.97
2022-12-17T08:35:37.316Z,206.67
2022-12-17T08:36:32.392Z,185.21
2022-12-17T08:37:28.586Z,159.38
2022-12-17T08:38:23.928Z,156.84
2022-12-17T08:39:19.360Z,156.99
2022-12-17T08:40:14.823Z,159.23
2022-12-17T08:41:10.441Z,168.90
2022-12-17T08:42:06.049Z,168.39
2022-12-17T08:43:01.427Z,175.47
2022-12-17T08:43:56.874Z,184.80
2022-12-17T08:44:52.432Z,189.81
2022-12-17T08:45:47.997Z,196.63
2022-12-17T08:46:43.431Z,199.87
2022-12-17T08:47:38.994Z,187.53
2022-12-17T08:48:34.317Z,188.39
2022-12-17T08:49:29.921Z,180.60
2022-12-17T08:50:24.970Z,178.48
2022-12-17T08:51:20.018Z,184.79
2022-12-17T08:52:15.076Z,193.96
2022-12-17T08:53:10.511Z,200.24
2022-12-17T08:54:05.338Z,210.24
2022-12-17T08:55:00.406Z,215.77
2022-12-17T08:55:55.426Z,216.91
2022-12-17T08:56:52.474Z,215.07
2022-12-17T08:57:47.516Z,214.64
2022-12-17T08:58:42.595Z,217.78
2022-12-17T08:59:37.670Z,218.65
2022-12-17T09:00:32.772Z,224.33
2022-12-17T09:01:27.947Z,224.18
2022-12-17T09:02:23.043Z,230.15
2022-12-17T09:03:17.963Z,228.23
2022-12-17T09:04:14.381Z,225.56
2022-12-17T09:05:09.661Z,229.19
2022-12-17T09:06:05.131Z,227.91
2022-12-17T09:07:00.560Z,225.56
2022-12-17T09:07:56.135Z,222.35
2022-12-17T09:08:51.608Z,227.12
2022-12-17T09:09:47.129Z,230.64
2022-12-17T09:10:42.573Z,227.91
2022-12-17T09:11:38.035Z,228.07
2022-12-17T09:12:33.481Z,226.50
2022-12-17T09:13:28.515Z,220.12
2022-12-17T09:14:23.535Z,223.41
2022-12-17T09:15:18.634Z,224.02
2022-12-17T09:16:13.778Z,223.26
2022-12-17T09:17:08.788Z,210.24
2022-12-17T09:18:03.746Z,204.48
2022-12-17T09:18:58.801Z,198.06
2022-12-17T09:19:56.293Z,199.38
2022-12-17T09:20:51.447Z,203.34
2022-12-17T09:21:46.702Z,209.71
2022-12-17T09:22:41.611Z,216.20
2022-12-17T09:23:36.823Z,221.75
2022-12-17T09:24:31.731Z,224.95
2022-12-17T09:25:26.808Z,229.19
2022-12-17T09:26:21.867Z,231.45
2022-12-17T09:27:17.220Z,233.76
2022-12-17T09:28:12.647Z,233.10
2022-12-17T09:29:08.115Z,232.27
2022-12-17T09:30:03.590Z,235.10
2022-12-17T09:30:59.121Z,242.57
2022-12-17T09:31:54.456Z,252.46
2022-12-17T09:32:50.066Z,254.42
2022-12-17T09:33:45.517Z,255.81
2022-12-17T09:34:40.979Z,258.02
2022-12-17T09:35:36.473Z,259.45
2022-12-17T09:36:31.926Z,252.66
2022-12-17T09:37:27.462Z,242.75
2022-12-17T09:38:22.791Z,230.15
2022-12-17T09:39:18.236Z,227.60
2022-12-17T09:40:13.715Z,231.78
2022-12-17T09:41:09.250Z,236.11
2022-12-17T09:42:04.635Z,235.60
2022-12-17T09:43:04.053Z,229.19
2022-12-17T09:43:59.338Z,226.18
2022-12-17T09:44:54.734Z,222.81
2022-12-17T09:45:50.174Z,224.64
2022-12-17T09:46:45.676Z,222.65
2022-12-17T09:47:41.115Z,218.65
2022-12-17T09:48:36.769Z,215.63
2022-12-17T09:49:32.187Z,209.84
2022-12-17T09:50:27.592Z,204.99
2022-12-17T09:51:22.919Z,205.76
2022-12-17T09:52:18.502Z,207.32
2022-12-17T09:53:13.935Z,202.09
2022-12-17T09:54:09.605Z,193.85
2022-12-17T09:55:04.795Z,196.05
2022-12-17T09:56:00.261Z,191.58
2022-12-17T09:56:55.344Z,186.68
2022-12-17T09:57:50.330Z,185.83
2022-12-17T09:58:45.528Z,191.81
2022-12-17T09:59:40.697Z,197.58
2022-12-17T10:00:35.737Z,205.24
2022-12-17T10:01:30.850Z,216.63
2022-12-17T10:02:26.112Z,232.76
2022-12-17T10:03:21.048Z,244.74
2022-12-17T10:04:16.062Z,251.69
2022-12-17T10:05:11.294Z,261.52
2022-12-17T10:06:07.819Z,258.84
2022-12-17T10:07:02.901Z,264.26
2022-12-17T10:07:57.987Z,264.47
2022-12-17T10:08:53.047Z,266.84
2022-12-17T10:09:48.804Z,269.91
2022-12-17T10:10:44.452Z,270.35
2022-12-17T10:11:39.675Z,271.92
2022-12-17T10:12:35.116Z,269.69
2022-12-17T10:13:30.565Z,270.58
2022-12-17T10:14:26.009Z,276.74
2022-12-17T10:15:21.484Z,270.13
2022-12-17T10:16:17.120Z,274.65
2022-12-17T10:17:12.518Z,275.11
2022-12-17T10:18:09.178Z,280.52
2022-12-17T10:19:04.655Z,284.66
2022-12-17T10:20:00.106Z,279.33
2022-12-17T10:20:55.566Z,272.15
2022-12-17T10:21:51.410Z,257.01
2022-12-17T10:22:46.162Z,255.61
2022-12-17T10:23:41.333Z,254.03
2022-12-17T10:24:36.392Z,233.93
2022-12-17T10:25:31.416Z,223.57
2022-12-17T10:26:26.447Z,215.77
2022-12-17T10:27:21.707Z,215.07
2022-12-17T10:28:16.618Z,212.42
2022-12-17T10:29:12.573Z,211.74
2022-12-17T10:30:07.656Z,212.28
2022-12-17T10:31:02.726Z,205.76
2022-12-17T10:31:57.818Z,203.21
2022-12-17T10:32:52.933Z,203.46
2022-12-17T10:33:47.863Z,204.10
2022-12-17T10:34:42.919Z,163.12
2022-12-17T10:35:38.021Z,151.84
2022-12-17T10:36:32.937Z,157.88
2022-12-17T10:37:27.972Z,164.90
2022-12-17T10:38:23.060Z,170.28
2022-12-17T10:39:18.024Z,174.74
2022-12-17T10:40:13.210Z,180.21
2022-12-17T10:41:08.785Z,184.89
2022-12-17T10:42:04.271Z,191.14
2022-12-17T10:42:59.719Z,196.40
2022-12-17T10:43:55.567Z,189.92
2022-12-17T10:44:50.777Z,182.18
2022-12-17T10:45:46.212Z,186.24
2022-12-17T10:46:41.801Z,193.96
2022-12-17T10:47:37.166Z,198.18
2022-12-17T10:48:32.596Z,199.87
2022-12-17T10:49:28.255Z,195.93
2022-12-17T10:50:23.713Z,192.48
2022-12-17T10:51:19.156Z,179.63
2022-12-17T10:52:18.033Z,179.43
2022-12-17T10:53:13.468Z,186.47
2022-12-17T10:54:08.910Z,183.18
2022-12-17T10:55:04.469Z,183.99
2022-12-17T10:55:59.766Z,189.37
2022-12-17T10:56:55.211Z,199.02
2022-12-17T10:57:50.707Z,207.85
2022-12-17T10:58:46.162Z,208.37
2022-12-17T11:01:07.517Z,207.06
2022-12-17T11:02:03.503Z,200.60
2022-12-17T11:02:58.168Z,202.71
2022-12-17T11:03:53.483Z,200.48
2022-12-17T11:04:48.930Z,199.02
2022-12-17T11:05:44.386Z,197.11
2022-12-17T11:06:42.475Z,192.93
2022-12-17T11:07:35.360Z,187.75
2022-12-17T11:08:30.809Z,174.37
2022-12-17T11:09:26.465Z,178.67
2022-12-17T11:10:21.722Z,188.72
2022-12-17T11:11:17.298Z,196.87
2022-12-17T11:12:12.931Z,201.71
2022-12-17T11:13:08.268Z,204.48
2022-12-17T11:14:03.703Z,201.22
2022-12-17T11:14:59.200Z,187.53
2022-12-17T11:15:54.695Z,190.25
2022-12-17T11:16:50.175Z,191.92
2022-12-17T11:17:45.868Z,188.83
2022-12-17T11:18:41.196Z,170.98
2022-12-17T11:19:36.664Z,164.57
2022-12-17T11:20:32.190Z,171.68
2022-12-17T11:21:27.604Z,174.92
2022-12-17T11:22:23.222Z,174.19
2022-12-17T11:23:18.893Z,163.44
2022-12-17T11:24:17.776Z,177.90
2022-12-17T11:25:10.746Z,189.04
2022-12-17T11:26:05.170Z,193.16
2022-12-17T11:27:00.578Z,198.54
2022-12-17T11:27:56.150Z,204.73
2022-12-17T11:28:51.712Z,219.38
2022-12-17T11:29:47.038Z,224.02
2022-12-17T11:30:42.593Z,224.02
2022-12-17T11:31:38.081Z,217.49
2022-12-17T11:32:33.484Z,218.07